sensor_id;sensor_type;location;lat;lon;timestamp;temperature;humidity
5554;DHT22;2800;49.528;8.666;2023-07-02T00:01:08;17.30;99.90
5554;DHT22;2800;49.528;8.666;2023-07-02T00:03:33;17.40;99.90
5554;DHT22;2800;49.528;8.666;2023-07-02T00:05:59;17.40;99.90
5554;DHT22;2800;49.528;8.666;2023-07-02T00:08:24;17.40;99.90
5554;DHT22;2800;49.528;8.666;2023-07-02T00:10:50;17.40;99.90
5554;DHT22;2800;49.528;8.666;2023-07-02T00:13:15;17.40;99.90
5554;DHT22;2800;49.528;8.666;2023-07-02T00:15:41;17.40;99.90
5554;DHT22;2800;49.528;8.666;2023-07-02T00:18:07;17.40;99.90
5554;DHT22;2800;49.528;8.666;2023-07-02T00:20:33;17.40;99.90
5554;DHT22;2800;49.528;8.666;2023-07-02T00:23:05;17.40;99.90
5554;DHT22;2800;49.528;8.666;2023-07-02T00:25:34;17.40;99.90
5554;DHT22;2800;49.528;8.666;2023-07-02T00:27:59;17.40;99.90
5554;DHT22;2800;49.528;8.666;2023-07-02T00:30:25;17.30;99.90
5554;DHT22;2800;49.528;8.666;2023-07-02T00:32:50;17.30;99.90
5554;DHT22;2800;49.528;8.666;2023-07-02T00:35:16;17.20;99.90
5554;DHT22;2800;49.528;8.666;2023-07-02T00:37:41;17.20;99.90
5554;DHT22;2800;49.528;8.666;2023-07-02T00:40:07;17.30;99.90
5554;DHT22;2800;49.528;8.666;2023-07-02T00:42:33;17.30;99.90
5554;DHT22;2800;49.528;8.666;2023-07-02T00:44:59;17.20;99.90
5554;DHT22;2800;49.528;8.666;2023-07-02T00:47:29;17.20;99.90
5554;DHT22;2800;49.528;8.666;2023-07-02T00:49:55;17.20;99.90
5554;DHT22;2800;49.528;8.666;2023-07-02T00:52:21;17.20;99.90
5554;DHT22;2800;49.528;8.666;2023-07-02T00:54:49;17.20;99.90
5554;DHT22;2800;49.528;8.666;2023-07-02T00:57:14;17.20;99.90
5554;DHT22;2800;49.528;8.666;2023-07-02T00:59:40;17.10;99.90
5554;DHT22;2800;49.528;8.666;2023-07-02T01:02:05;17.10;99.90
5554;DHT22;2800;49.528;8.666;2023-07-02T01:04:31;17.10;99.90
5554;DHT22;2800;49.528;8.666;2023-07-02T01:06:57;17.00;99.90
5554;DHT22;2800;49.528;8.666;2023-07-02T01:09:24;17.00;99.90
5554;DHT22;2800;49.528;8.666;2023-07-02T01:12:04;17.00;99.90
5554;DHT22;2800;49.528;8.666;2023-07-02T01:14:36;16.90;99.90
5554;DHT22;2800;49.528;8.666;2023-07-02T01:17:03;16.90;99.90
5554;DHT22;2800;49.528;8.666;2023-07-02T01:22:06;16.80;99.90
5554;DHT22;2800;49.528;8.666;2023-07-02T01:24:32;16.80;99.90
5554;DHT22;2800;49.528;8.666;2023-07-02T01:26:57;16.80;99.90
5554;DHT22;2800;49.528;8.666;2023-07-02T01:29:29;16.70;99.90
5554;DHT22;2800;49.528;8.666;2023-07-02T01:31:55;16.70;99.90
5554;DHT22;2800;49.528;8.666;2023-07-02T01:34:21;16.70;99.90
5554;DHT22;2800;49.528;8.666;2023-07-02T01:36:46;16.70;99.90
5554;DHT22;2800;49.528;8.666;2023-07-02T01:39:12;16.70;99.90
5554;DHT22;2800;49.528;8.666;2023-07-02T01:41:52;16.70;99.90
5554;DHT22;2800;49.528;8.666;2023-07-02T01:44:18;16.70;99.90
5554;DHT22;2800;49.528;8.666;2023-07-02T01:46:44;16.60;99.90
5554;DHT22;2800;49.528;8.666;2023-07-02T01:49:19;16.60;99.90
5554;DHT22;2800;49.528;8.666;2023-07-02T01:51:51;16.60;99.90
5554;DHT22;2800;49.528;8.666;2023-07-02T01:54:19;16.50;99.90
5554;DHT22;2800;49.528;8.666;2023-07-02T01:56:45;16.50;99.90
5554;DHT22;2800;49.528;8.666;2023-07-02T01:59:11;16.60;99.90
5554;DHT22;2800;49.528;8.666;2023-07-02T02:01:37;16.50;99.90
5554;DHT22;2800;49.528;8.666;2023-07-02T02:04:06;16.50;99.90
5554;DHT22;2800;49.528;8.666;2023-07-02T02:06:31;16.60;99.90
5554;DHT22;2800;49.528;8.666;2023-07-02T02:08:57;16.50;99.90
5554;DHT22;2800;49.528;8.666;2023-07-02T02:11:22;16.60;99.90
5554;DHT22;2800;49.528;8.666;2023-07-02T02:13:49;16.60;99.90
5554;DHT22;2800;49.528;8.666;2023-07-02T02:16:14;16.60;99.90
5554;DHT22;2800;49.528;8.666;2023-07-02T02:18:40;16.60;99.90
5554;DHT22;2800;49.528;8.666;2023-07-02T02:21:06;16.60;99.90
5554;DHT22;2800;49.528;8.666;2023-07-02T02:23:32;16.60;99.90
5554;DHT22;2800;49.528;8.666;2023-07-02T02:25:57;16.50;99.90
5554;DHT22;2800;49.528;8.666;2023-07-02T02:28:23;16.50;99.90
5554;DHT22;2800;49.528;8.666;2023-07-02T02:30:48;16.60;99.90
5554;DHT22;2800;49.528;8.666;2023-07-02T02:33:14;16.60;99.90
5554;DHT22;2800;49.528;8.666;2023-07-02T02:35:39;16.60;99.90
5554;DHT22;2800;49.528;8.666;2023-07-02T02:38:05;16.60;99.90
5554;DHT22;2800;49.528;8.666;2023-07-02T02:40:30;16.60;99.90
5554;DHT22;2800;49.528;8.666;2023-07-02T02:42:56;16.70;99.90
5554;DHT22;2800;49.528;8.666;2023-07-02T02:45:21;16.60;99.90
5554;DHT22;2800;49.528;8.666;2023-07-02T02:47:47;16.60;99.90
5554;DHT22;2800;49.528;8.666;2023-07-02T02:50:13;16.60;99.90
5554;DHT22;2800;49.528;8.666;2023-07-02T02:52:39;16.50;99.90
5554;DHT22;2800;49.528;8.666;2023-07-02T02:55:06;16.50;99.90
5554;DHT22;2800;49.528;8.666;2023-07-02T02:57:32;16.50;99.90
5554;DHT22;2800;49.528;8.666;2023-07-02T02:59:58;16.50;99.90
5554;DHT22;2800;49.528;8.666;2023-07-02T03:02:23;16.40;99.90
5554;DHT22;2800;49.528;8.666;2023-07-02T03:04:49;16.40;99.90
5554;DHT22;2800;49.528;8.666;2023-07-02T03:07:15;16.40;99.90
5554;DHT22;2800;49.528;8.666;2023-07-02T03:09:41;16.30;99.90
5554;DHT22;2800;49.528;8.666;2023-07-02T03:12:07;16.20;99.90
5554;DHT22;2800;49.528;8.666;2023-07-02T03:14:32;16.20;99.90
5554;DHT22;2800;49.528;8.666;2023-07-02T03:16:58;16.20;99.90
5554;DHT22;2800;49.528;8.666;2023-07-02T03:19:24;16.10;99.90
5554;DHT22;2800;49.528;8.666;2023-07-02T03:21:49;16.10;99.90
5554;DHT22;2800;49.528;8.666;2023-07-02T03:24:15;16.10;99.90
5554;DHT22;2800;49.528;8.666;2023-07-02T03:26:44;16.00;99.90
5554;DHT22;2800;49.528;8.666;2023-07-02T03:29:10;16.00;99.90
5554;DHT22;2800;49.528;8.666;2023-07-02T03:31:36;16.00;99.90
5554;DHT22;2800;49.528;8.666;2023-07-02T03:34:05;16.00;99.90
5554;DHT22;2800;49.528;8.666;2023-07-02T03:36:31;16.00;99.90
5554;DHT22;2800;49.528;8.666;2023-07-02T03:38:57;15.90;99.90
5554;DHT22;2800;49.528;8.666;2023-07-02T03:41:22;15.90;99.90
5554;DHT22;2800;49.528;8.666;2023-07-02T03:43:48;15.90;99.90
5554;DHT22;2800;49.528;8.666;2023-07-02T03:46:14;15.90;99.90
5554;DHT22;2800;49.528;8.666;2023-07-02T03:48:39;15.80;99.90
5554;DHT22;2800;49.528;8.666;2023-07-02T03:51:06;15.80;99.90
5554;DHT22;2800;49.528;8.666;2023-07-02T03:53:32;15.80;99.90
5554;DHT22;2800;49.528;8.666;2023-07-02T03:55:57;15.80;99.90
5554;DHT22;2800;49.528;8.666;2023-07-02T03:58:23;15.80;99.90
5554;DHT22;2800;49.528;8.666;2023-07-02T04:00:48;15.80;99.90
5554;DHT22;2800;49.528;8.666;2023-07-02T04:03:17;15.80;99.90
5554;DHT22;2800;49.528;8.666;2023-07-02T04:05:43;15.80;99.90
5554;DHT22;2800;49.528;8.666;2023-07-02T04:08:09;15.80;99.90
5554;DHT22;2800;49.528;8.666;2023-07-02T04:10:35;15.80;99.90
5554;DHT22;2800;49.528;8.666;2023-07-02T04:13:01;15.80;99.90
5554;DHT22;2800;49.528;8.666;2023-07-02T04:15:26;15.80;99.90
5554;DHT22;2800;49.528;8.666;2023-07-02T04:17:52;15.80;99.90
5554;DHT22;2800;49.528;8.666;2023-07-02T04:20:19;15.90;99.90
5554;DHT22;2800;49.528;8.666;2023-07-02T04:22:45;15.90;99.90
5554;DHT22;2800;49.528;8.666;2023-07-02T04:25:15;15.90;99.90
5554;DHT22;2800;49.528;8.666;2023-07-02T04:27:44;15.80;99.90
5554;DHT22;2800;49.528;8.666;2023-07-02T04:30:11;15.90;99.90
5554;DHT22;2800;49.528;8.666;2023-07-02T04:32:37;16.00;99.90
5554;DHT22;2800;49.528;8.666;2023-07-02T04:35:05;16.20;99.90
5554;DHT22;2800;49.528;8.666;2023-07-02T04:37:31;16.20;99.90
5554;DHT22;2800;49.528;8.666;2023-07-02T04:39:56;16.20;99.90
5554;DHT22;2800;49.528;8.666;2023-07-02T04:42:22;16.20;99.90
5554;DHT22;2800;49.528;8.666;2023-07-02T04:44:53;16.20;99.90
5554;DHT22;2800;49.528;8.666;2023-07-02T04:47:19;16.30;99.90
5554;DHT22;2800;49.528;8.666;2023-07-02T04:49:45;16.30;99.90
5554;DHT22;2800;49.528;8.666;2023-07-02T04:52:10;16.30;99.90
5554;DHT22;2800;49.528;8.666;2023-07-02T04:54:36;16.40;99.90
5554;DHT22;2800;49.528;8.666;2023-07-02T04:57:01;16.30;99.90
5554;DHT22;2800;49.528;8.666;2023-07-02T04:59:27;16.30;99.90
5554;DHT22;2800;49.528;8.666;2023-07-02T05:01:53;16.40;99.90
5554;DHT22;2800;49.528;8.666;2023-07-02T05:04:18;16.30;99.90
5554;DHT22;2800;49.528;8.666;2023-07-02T05:06:44;16.30;99.90
5554;DHT22;2800;49.528;8.666;2023-07-02T05:09:09;16.30;99.90
5554;DHT22;2800;49.528;8.666;2023-07-02T05:11:35;16.40;99.90
5554;DHT22;2800;49.528;8.666;2023-07-02T05:14:00;16.40;99.90
5554;DHT22;2800;49.528;8.666;2023-07-02T05:16:26;16.40;99.90
5554;DHT22;2800;49.528;8.666;2023-07-02T05:18:51;16.50;99.90
5554;DHT22;2800;49.528;8.666;2023-07-02T05:21:18;16.50;99.90
5554;DHT22;2800;49.528;8.666;2023-07-02T05:23:43;16.60;99.90
5554;DHT22;2800;49.528;8.666;2023-07-02T05:26:09;16.60;99.90
5554;DHT22;2800;49.528;8.666;2023-07-02T05:28:34;16.60;99.90
5554;DHT22;2800;49.528;8.666;2023-07-02T05:31:00;16.60;99.90
5554;DHT22;2800;49.528;8.666;2023-07-02T05:33:25;16.60;99.90
5554;DHT22;2800;49.528;8.666;2023-07-02T05:35:51;16.50;99.90
5554;DHT22;2800;49.528;8.666;2023-07-02T05:38:18;16.50;99.90
5554;DHT22;2800;49.528;8.666;2023-07-02T05:40:44;16.60;99.90
5554;DHT22;2800;49.528;8.666;2023-07-02T05:43:09;16.60;99.90
5554;DHT22;2800;49.528;8.666;2023-07-02T05:45:35;16.80;99.90
5554;DHT22;2800;49.528;8.666;2023-07-02T05:48:00;16.80;99.90
5554;DHT22;2800;49.528;8.666;2023-07-02T05:50:26;17.00;99.90
5554;DHT22;2800;49.528;8.666;2023-07-02T05:52:52;17.00;99.90
5554;DHT22;2800;49.528;8.666;2023-07-02T05:55:17;17.20;99.90
5554;DHT22;2800;49.528;8.666;2023-07-02T05:57:43;17.20;99.90
5554;DHT22;2800;49.528;8.666;2023-07-02T06:00:09;17.30;99.90
5554;DHT22;2800;49.528;8.666;2023-07-02T06:02:34;17.50;99.90
5554;DHT22;2800;49.528;8.666;2023-07-02T06:05:00;17.60;99.90
5554;DHT22;2800;49.528;8.666;2023-07-02T06:07:27;17.80;99.90
5554;DHT22;2800;49.528;8.666;2023-07-02T06:09:52;17.60;99.90
5554;DHT22;2800;49.528;8.666;2023-07-02T06:12:18;17.40;99.90
5554;DHT22;2800;49.528;8.666;2023-07-02T06:14:43;17.60;99.90
5554;DHT22;2800;49.528;8.666;2023-07-02T06:17:09;17.90;99.90
5554;DHT22;2800;49.528;8.666;2023-07-02T06:19:36;18.00;99.90
5554;DHT22;2800;49.528;8.666;2023-07-02T06:22:02;18.10;99.90
5554;DHT22;2800;49.528;8.666;2023-07-02T06:24:28;18.10;99.90
5554;DHT22;2800;49.528;8.666;2023-07-02T06:26:53;18.30;99.90
5554;DHT22;2800;49.528;8.666;2023-07-02T06:29:21;18.10;99.90
5554;DHT22;2800;49.528;8.666;2023-07-02T06:31:47;18.10;99.90
5554;DHT22;2800;49.528;8.666;2023-07-02T06:34:12;17.90;99.90
5554;DHT22;2800;49.528;8.666;2023-07-02T06:36:38;17.90;99.90
5554;DHT22;2800;49.528;8.666;2023-07-02T06:39:03;18.00;99.90
5554;DHT22;2800;49.528;8.666;2023-07-02T06:41:29;18.30;99.90
5554;DHT22;2800;49.528;8.666;2023-07-02T06:43:54;18.30;99.90
5554;DHT22;2800;49.528;8.666;2023-07-02T06:46:20;18.50;99.90
5554;DHT22;2800;49.528;8.666;2023-07-02T06:48:45;18.80;99.90
5554;DHT22;2800;49.528;8.666;2023-07-02T06:51:11;18.80;99.90
5554;DHT22;2800;49.528;8.666;2023-07-02T06:53:44;19.30;99.90
5554;DHT22;2800;49.528;8.666;2023-07-02T06:56:09;19.30;99.90
5554;DHT22;2800;49.528;8.666;2023-07-02T06:58:35;19.20;99.90
5554;DHT22;2800;49.528;8.666;2023-07-02T07:01:01;19.20;99.90
5554;DHT22;2800;49.528;8.666;2023-07-02T07:03:28;19.30;99.90
5554;DHT22;2800;49.528;8.666;2023-07-02T07:05:54;19.20;99.90
5554;DHT22;2800;49.528;8.666;2023-07-02T07:08:19;19.10;99.90
5554;DHT22;2800;49.528;8.666;2023-07-02T07:10:45;19.30;99.90
5554;DHT22;2800;49.528;8.666;2023-07-02T07:13:11;19.50;99.90
5554;DHT22;2800;49.528;8.666;2023-07-02T07:15:37;19.40;99.90
5554;DHT22;2800;49.528;8.666;2023-07-02T07:18:03;19.50;99.90
5554;DHT22;2800;49.528;8.666;2023-07-02T07:20:29;19.80;99.90
5554;DHT22;2800;49.528;8.666;2023-07-02T07:22:55;19.60;99.90
5554;DHT22;2800;49.528;8.666;2023-07-02T07:25:20;19.70;99.90
5554;DHT22;2800;49.528;8.666;2023-07-02T07:27:46;19.70;99.90
5554;DHT22;2800;49.528;8.666;2023-07-02T07:30:12;20.00;99.90
5554;DHT22;2800;49.528;8.666;2023-07-02T07:32:40;19.90;99.90
5554;DHT22;2800;49.528;8.666;2023-07-02T07:35:06;20.00;99.90
5554;DHT22;2800;49.528;8.666;2023-07-02T07:37:31;20.50;99.90
5554;DHT22;2800;49.528;8.666;2023-07-02T07:39:57;20.40;99.90
5554;DHT22;2800;49.528;8.666;2023-07-02T07:42:23;19.90;99.90
5554;DHT22;2800;49.528;8.666;2023-07-02T07:44:48;20.20;99.90
5554;DHT22;2800;49.528;8.666;2023-07-02T07:47:14;20.40;99.90
5554;DHT22;2800;49.528;8.666;2023-07-02T07:49:39;20.50;99.90
5554;DHT22;2800;49.528;8.666;2023-07-02T07:52:05;20.10;99.90
5554;DHT22;2800;49.528;8.666;2023-07-02T07:54:32;20.50;99.90
5554;DHT22;2800;49.528;8.666;2023-07-02T07:57:00;20.30;99.90
5554;DHT22;2800;49.528;8.666;2023-07-02T07:59:25;20.50;99.90
5554;DHT22;2800;49.528;8.666;2023-07-02T08:01:51;20.40;99.90
5554;DHT22;2800;49.528;8.666;2023-07-02T08:04:16;20.10;99.90
5554;DHT22;2800;49.528;8.666;2023-07-02T08:06:42;20.40;99.90
5554;DHT22;2800;49.528;8.666;2023-07-02T08:09:07;20.30;99.90
5554;DHT22;2800;49.528;8.666;2023-07-02T08:11:33;20.10;99.90
5554;DHT22;2800;49.528;8.666;2023-07-02T08:13:59;20.20;99.90
5554;DHT22;2800;49.528;8.666;2023-07-02T08:16:25;20.90;99.90
5554;DHT22;2800;49.528;8.666;2023-07-02T08:18:50;20.80;99.90
5554;DHT22;2800;49.528;8.666;2023-07-02T08:21:16;21.10;99.90
5554;DHT22;2800;49.528;8.666;2023-07-02T08:23:42;21.10;99.90
5554;DHT22;2800;49.528;8.666;2023-07-02T08:26:09;21.20;99.90
5554;DHT22;2800;49.528;8.666;2023-07-02T08:28:36;21.80;99.90
5554;DHT22;2800;49.528;8.666;2023-07-02T08:31:03;22.30;99.90
5554;DHT22;2800;49.528;8.666;2023-07-02T08:33:29;22.10;99.90
5554;DHT22;2800;49.528;8.666;2023-07-02T08:35:55;22.10;99.90
5554;DHT22;2800;49.528;8.666;2023-07-02T08:38:21;21.40;99.90
5554;DHT22;2800;49.528;8.666;2023-07-02T08:40:48;21.20;99.90
5554;DHT22;2800;49.528;8.666;2023-07-02T08:43:14;21.50;99.90
5554;DHT22;2800;49.528;8.666;2023-07-02T08:45:41;20.90;99.90
5554;DHT22;2800;49.528;8.666;2023-07-02T08:48:08;21.60;99.90
5554;DHT22;2800;49.528;8.666;2023-07-02T08:50:33;21.70;99.90
5554;DHT22;2800;49.528;8.666;2023-07-02T08:52:59;22.30;99.90
5554;DHT22;2800;49.528;8.666;2023-07-02T08:55:24;22.60;99.90
5554;DHT22;2800;49.528;8.666;2023-07-02T08:57:53;22.30;99.90
5554;DHT22;2800;49.528;8.666;2023-07-02T09:00:19;22.20;99.90
5554;DHT22;2800;49.528;8.666;2023-07-02T09:02:45;22.40;99.90
5554;DHT22;2800;49.528;8.666;2023-07-02T09:05:12;21.70;99.90
5554;DHT22;2800;49.528;8.666;2023-07-02T09:07:49;22.00;99.90
5554;DHT22;2800;49.528;8.666;2023-07-02T09:10:30;22.20;99.90
5554;DHT22;2800;49.528;8.666;2023-07-02T09:13:06;22.60;99.90
5554;DHT22;2800;49.528;8.666;2023-07-02T09:15:39;22.90;99.90
5554;DHT22;2800;49.528;8.666;2023-07-02T09:18:18;22.30;99.90
5554;DHT22;2800;49.528;8.666;2023-07-02T09:20:43;22.70;99.90
5554;DHT22;2800;49.528;8.666;2023-07-02T09:23:09;22.30;99.90
5554;DHT22;2800;49.528;8.666;2023-07-02T09:25:39;22.90;99.90
5554;DHT22;2800;49.528;8.666;2023-07-02T09:28:19;22.50;99.90
5554;DHT22;2800;49.528;8.666;2023-07-02T09:30:56;22.00;99.90
5554;DHT22;2800;49.528;8.666;2023-07-02T09:33:26;22.00;99.90
5554;DHT22;2800;49.528;8.666;2023-07-02T09:35:52;22.60;99.90
5554;DHT22;2800;49.528;8.666;2023-07-02T09:38:19;23.20;99.90
5554;DHT22;2800;49.528;8.666;2023-07-02T09:40:47;23.40;99.90
5554;DHT22;2800;49.528;8.666;2023-07-02T09:43:14;22.70;99.90
5554;DHT22;2800;49.528;8.666;2023-07-02T09:45:43;22.80;99.90
5554;DHT22;2800;49.528;8.666;2023-07-02T09:48:14;22.10;99.90
5554;DHT22;2800;49.528;8.666;2023-07-02T09:50:47;22.50;99.90
5554;DHT22;2800;49.528;8.666;2023-07-02T09:53:14;22.80;99.90
5554;DHT22;2800;49.528;8.666;2023-07-02T09:55:42;23.40;99.90
5554;DHT22;2800;49.528;8.666;2023-07-02T09:58:07;23.90;99.90
5554;DHT22;2800;49.528;8.666;2023-07-02T10:00:33;22.90;99.90
5554;DHT22;2800;49.528;8.666;2023-07-02T10:03:00;22.80;99.90
5554;DHT22;2800;49.528;8.666;2023-07-02T10:05:29;22.30;99.90
5554;DHT22;2800;49.528;8.666;2023-07-02T10:08:00;22.20;99.90
5554;DHT22;2800;49.528;8.666;2023-07-02T10:10:36;23.50;99.90
5554;DHT22;2800;49.528;8.666;2023-07-02T10:13:02;22.80;99.90
5554;DHT22;2800;49.528;8.666;2023-07-02T10:15:29;23.30;99.90
5554;DHT22;2800;49.528;8.666;2023-07-02T10:17:56;22.80;99.90
5554;DHT22;2800;49.528;8.666;2023-07-02T10:20:32;22.30;99.90
5554;DHT22;2800;49.528;8.666;2023-07-02T10:22:59;23.10;99.90
5554;DHT22;2800;49.528;8.666;2023-07-02T10:25:32;23.60;99.90
5554;DHT22;2800;49.528;8.666;2023-07-02T10:28:00;23.70;99.90
5554;DHT22;2800;49.528;8.666;2023-07-02T10:30:37;22.90;98.50
5554;DHT22;2800;49.528;8.666;2023-07-02T10:33:16;23.10;97.30
5554;DHT22;2800;49.528;8.666;2023-07-02T10:35:45;23.50;98.00
5554;DHT22;2800;49.528;8.666;2023-07-02T10:38:21;23.90;98.30
5554;DHT22;2800;49.528;8.666;2023-07-02T10:40:57;24.90;98.30
5554;DHT22;2800;49.528;8.666;2023-07-02T10:43:27;24.30;96.60
5554;DHT22;2800;49.528;8.666;2023-07-02T10:45:54;24.40;98.00
5554;DHT22;2800;49.528;8.666;2023-07-02T10:48:19;25.60;99.00
5554;DHT22;2800;49.528;8.666;2023-07-02T10:50:45;25.60;97.00
5554;DHT22;2800;49.528;8.666;2023-07-02T10:53:18;26.00;94.50
5554;DHT22;2800;49.528;8.666;2023-07-02T10:55:44;24.50;94.00
5554;DHT22;2800;49.528;8.666;2023-07-02T10:58:11;24.30;97.30
5554;DHT22;2800;49.528;8.666;2023-07-02T11:00:47;24.70;97.80
5554;DHT22;2800;49.528;8.666;2023-07-02T11:03:23;25.30;99.60
5554;DHT22;2800;49.528;8.666;2023-07-02T11:05:50;24.60;99.90
5554;DHT22;2800;49.528;8.666;2023-07-02T11:08:16;24.40;96.80
5554;DHT22;2800;49.528;8.666;2023-07-02T11:10:42;23.30;95.00
5554;DHT22;2800;49.528;8.666;2023-07-02T11:13:21;23.40;94.30
5554;DHT22;2800;49.528;8.666;2023-07-02T11:15:47;24.20;95.70
5554;DHT22;2800;49.528;8.666;2023-07-02T11:18:13;24.60;92.60
5554;DHT22;2800;49.528;8.666;2023-07-02T11:20:41;25.00;97.00
5554;DHT22;2800;49.528;8.666;2023-07-02T11:23:23;25.10;97.00
5554;DHT22;2800;49.528;8.666;2023-07-02T11:25:56;25.20;97.50
5554;DHT22;2800;49.528;8.666;2023-07-02T11:28:24;26.00;98.40
5554;DHT22;2800;49.528;8.666;2023-07-02T11:30:50;26.70;97.80
5554;DHT22;2800;49.528;8.666;2023-07-02T11:33:15;26.50;96.60
5554;DHT22;2800;49.528;8.666;2023-07-02T11:35:41;26.40;94.80
5554;DHT22;2800;49.528;8.666;2023-07-02T11:38:09;25.70;97.30
5554;DHT22;2800;49.528;8.666;2023-07-02T11:40:36;24.80;94.10
5554;DHT22;2800;49.528;8.666;2023-07-02T11:43:01;25.00;94.30
5554;DHT22;2800;49.528;8.666;2023-07-02T11:45:27;25.30;91.90
5554;DHT22;2800;49.528;8.666;2023-07-02T11:47:53;25.00;90.80
5554;DHT22;2800;49.528;8.666;2023-07-02T11:50:18;24.70;91.40
5554;DHT22;2800;49.528;8.666;2023-07-02T11:52:44;25.20;91.20
5554;DHT22;2800;49.528;8.666;2023-07-02T11:55:09;25.00;90.20
5554;DHT22;2800;49.528;8.666;2023-07-02T11:57:35;24.90;90.40
5554;DHT22;2800;49.528;8.666;2023-07-02T12:00:00;24.10;88.10
5554;DHT22;2800;49.528;8.666;2023-07-02T12:02:26;24.20;91.40
5554;DHT22;2800;49.528;8.666;2023-07-02T12:04:51;24.20;96.30
5554;DHT22;2800;49.528;8.666;2023-07-02T12:07:17;24.40;90.20
5554;DHT22;2800;49.528;8.666;2023-07-02T12:09:42;24.90;82.20
5554;DHT22;2800;49.528;8.666;2023-07-02T12:12:08;25.00;87.90
5554;DHT22;2800;49.528;8.666;2023-07-02T12:14:34;26.00;89.30
5554;DHT22;2800;49.528;8.666;2023-07-02T12:16:59;26.90;83.10
5554;DHT22;2800;49.528;8.666;2023-07-02T12:19:25;27.20;83.70
5554;DHT22;2800;49.528;8.666;2023-07-02T12:21:50;27.70;92.00
5554;DHT22;2800;49.528;8.666;2023-07-02T12:24:16;28.20;83.50
5554;DHT22;2800;49.528;8.666;2023-07-02T12:26:42;26.50;79.00
5554;DHT22;2800;49.528;8.666;2023-07-02T12:29:08;26.50;80.90
5554;DHT22;2800;49.528;8.666;2023-07-02T12:31:33;26.10;80.30
5554;DHT22;2800;49.528;8.666;2023-07-02T12:33:59;27.10;86.20
5554;DHT22;2800;49.528;8.666;2023-07-02T12:36:24;27.10;83.40
5554;DHT22;2800;49.528;8.666;2023-07-02T12:38:50;26.60;83.90
5554;DHT22;2800;49.528;8.666;2023-07-02T12:41:15;26.80;82.60
5554;DHT22;2800;49.528;8.666;2023-07-02T12:43:41;26.90;82.10
5554;DHT22;2800;49.528;8.666;2023-07-02T12:46:06;25.80;81.60
5554;DHT22;2800;49.528;8.666;2023-07-02T12:48:32;26.00;82.50
5554;DHT22;2800;49.528;8.666;2023-07-02T12:50:59;26.40;83.60
5554;DHT22;2800;49.528;8.666;2023-07-02T12:53:25;26.20;84.80
5554;DHT22;2800;49.528;8.666;2023-07-02T12:55:51;25.60;81.70
5554;DHT22;2800;49.528;8.666;2023-07-02T12:58:16;26.10;83.60
5554;DHT22;2800;49.528;8.666;2023-07-02T13:00:42;26.00;88.40
5554;DHT22;2800;49.528;8.666;2023-07-02T13:03:11;25.80;82.70
5554;DHT22;2800;49.528;8.666;2023-07-02T13:05:37;25.40;85.50
5554;DHT22;2800;49.528;8.666;2023-07-02T13:08:03;25.10;81.20
5554;DHT22;2800;49.528;8.666;2023-07-02T13:10:30;24.90;81.60
5554;DHT22;2800;49.528;8.666;2023-07-02T13:12:56;25.20;81.60
5554;DHT22;2800;49.528;8.666;2023-07-02T13:15:21;24.90;82.20
5554;DHT22;2800;49.528;8.666;2023-07-02T13:17:47;26.10;83.70
5554;DHT22;2800;49.528;8.666;2023-07-02T13:20:13;25.30;83.00
5554;DHT22;2800;49.528;8.666;2023-07-02T13:22:38;25.50;84.80
5554;DHT22;2800;49.528;8.666;2023-07-02T13:25:04;25.40;83.00
5554;DHT22;2800;49.528;8.666;2023-07-02T13:27:30;25.00;81.40
5554;DHT22;2800;49.528;8.666;2023-07-02T13:29:56;24.80;78.30
5554;DHT22;2800;49.528;8.666;2023-07-02T13:32:22;24.90;82.10
5554;DHT22;2800;49.528;8.666;2023-07-02T13:34:47;25.50;84.80
5554;DHT22;2800;49.528;8.666;2023-07-02T13:37:13;26.30;85.30
5554;DHT22;2800;49.528;8.666;2023-07-02T13:39:39;26.50;86.10
5554;DHT22;2800;49.528;8.666;2023-07-02T13:42:05;26.30;90.20
5554;DHT22;2800;49.528;8.666;2023-07-02T13:44:31;26.10;87.30
5554;DHT22;2800;49.528;8.666;2023-07-02T13:46:57;26.10;89.50
5554;DHT22;2800;49.528;8.666;2023-07-02T13:49:23;27.40;89.10
5554;DHT22;2800;49.528;8.666;2023-07-02T13:51:48;27.00;85.20
5554;DHT22;2800;49.528;8.666;2023-07-02T13:54:16;26.90;90.10
5554;DHT22;2800;49.528;8.666;2023-07-02T13:56:41;28.20;90.80
5554;DHT22;2800;49.528;8.666;2023-07-02T13:59:07;27.80;90.00
5554;DHT22;2800;49.528;8.666;2023-07-02T14:01:33;28.10;90.60
5554;DHT22;2800;49.528;8.666;2023-07-02T14:04:00;28.30;88.20
5554;DHT22;2800;49.528;8.666;2023-07-02T14:06:25;28.50;89.70
5554;DHT22;2800;49.528;8.666;2023-07-02T14:08:51;28.40;86.90
5554;DHT22;2800;49.528;8.666;2023-07-02T14:11:17;28.40;89.00
5554;DHT22;2800;49.528;8.666;2023-07-02T14:13:42;27.90;87.40
5554;DHT22;2800;49.528;8.666;2023-07-02T14:16:08;26.90;83.70
5554;DHT22;2800;49.528;8.666;2023-07-02T14:18:33;26.70;86.60
5554;DHT22;2800;49.528;8.666;2023-07-02T14:20:59;27.30;87.60
5554;DHT22;2800;49.528;8.666;2023-07-02T14:23:25;28.10;87.70
5554;DHT22;2800;49.528;8.666;2023-07-02T14:25:50;28.40;87.60
5554;DHT22;2800;49.528;8.666;2023-07-02T14:28:16;27.90;86.10
5554;DHT22;2800;49.528;8.666;2023-07-02T14:30:41;27.90;88.30
5554;DHT22;2800;49.528;8.666;2023-07-02T14:33:08;27.40;86.10
5554;DHT22;2800;49.528;8.666;2023-07-02T14:35:33;27.40;83.30
5554;DHT22;2800;49.528;8.666;2023-07-02T14:38:00;27.20;80.10
5554;DHT22;2800;49.528;8.666;2023-07-02T14:40:26;27.00;76.40
5554;DHT22;2800;49.528;8.666;2023-07-02T14:42:51;26.70;79.40
5554;DHT22;2800;49.528;8.666;2023-07-02T14:45:17;26.60;76.30
5554;DHT22;2800;49.528;8.666;2023-07-02T14:47:42;26.70;75.40
5554;DHT22;2800;49.528;8.666;2023-07-02T14:50:08;26.00;80.50
5554;DHT22;2800;49.528;8.666;2023-07-02T14:52:34;25.60;88.60
5554;DHT22;2800;49.528;8.666;2023-07-02T14:54:59;26.70;86.00
5554;DHT22;2800;49.528;8.666;2023-07-02T14:57:26;27.60;95.10
5554;DHT22;2800;49.528;8.666;2023-07-02T14:59:52;28.40;90.80
5554;DHT22;2800;49.528;8.666;2023-07-02T15:02:18;27.60;94.60
5554;DHT22;2800;49.528;8.666;2023-07-02T15:04:44;27.20;95.20
5554;DHT22;2800;49.528;8.666;2023-07-02T15:07:10;27.00;90.80
5554;DHT22;2800;49.528;8.666;2023-07-02T15:09:35;26.00;93.60
5554;DHT22;2800;49.528;8.666;2023-07-02T15:12:01;26.00;90.00
5554;DHT22;2800;49.528;8.666;2023-07-02T15:14:27;25.70;90.10
5554;DHT22;2800;49.528;8.666;2023-07-02T15:16:52;26.10;91.10
5554;DHT22;2800;49.528;8.666;2023-07-02T15:19:18;26.00;91.90
5554;DHT22;2800;49.528;8.666;2023-07-02T15:21:44;25.20;86.10
5554;DHT22;2800;49.528;8.666;2023-07-02T15:24:09;24.90;87.80
5554;DHT22;2800;49.528;8.666;2023-07-02T15:26:37;24.70;85.90
5554;DHT22;2800;49.528;8.666;2023-07-02T15:29:03;25.60;87.30
5554;DHT22;2800;49.528;8.666;2023-07-02T15:31:28;26.40;90.20
5554;DHT22;2800;49.528;8.666;2023-07-02T15:33:54;26.30;88.90
5554;DHT22;2800;49.528;8.666;2023-07-02T15:36:20;26.20;90.70
5554;DHT22;2800;49.528;8.666;2023-07-02T15:38:48;26.30;90.60
5554;DHT22;2800;49.528;8.666;2023-07-02T15:41:15;26.50;91.20
5554;DHT22;2800;49.528;8.666;2023-07-02T15:43:43;26.60;93.60
5554;DHT22;2800;49.528;8.666;2023-07-02T15:46:10;26.60;94.10
5554;DHT22;2800;49.528;8.666;2023-07-02T15:48:36;26.00;90.50
5554;DHT22;2800;49.528;8.666;2023-07-02T15:51:03;25.30;90.80
5554;DHT22;2800;49.528;8.666;2023-07-02T15:53:31;25.10;84.60
5554;DHT22;2800;49.528;8.666;2023-07-02T15:55:57;25.40;91.50
5554;DHT22;2800;49.528;8.666;2023-07-02T15:58:27;25.60;93.60
5554;DHT22;2800;49.528;8.666;2023-07-02T16:00:54;26.10;93.70